Time;durP1;ratioP1;P1;durP2;ratioP2;P2;SDS_P1;SDS_P2;PMS_P1;PMS_P2;Temp;Humidity;BMP_temperature;BMP_pressure;BME280_temperature;BME280_humidity;BME280_pressure;Samples;Min_cycle;Max_cycle;Signal;HPM_P1;HPM_P2
2023/07/23 00:00:56;;;;;;;4.93;3.17;;;19.90;62.60;;;;;;5053889;28;20224;-76
2023/07/23 00:03:22;;;;;;;10.20;3.80;;;20.00;62.30;;;;;;5061100;28;20275;-75
2023/07/23 00:05:50;;;;;;;5.37;3.23;;;20.00;62.00;;;;;;5060553;28;20580;-75
2023/07/23 00:08:16;;;;;;;5.90;3.63;;;20.10;61.70;;;;;;5059847;28;20274;-78
2023/07/23 00:10:41;;;;;;;6.67;3.50;;;20.10;61.70;;;;;;5061294;28;20527;-78
2023/07/23 00:13:07;;;;;;;7.30;4.00;;;20.10;61.60;;;;;;5065576;28;20267;-78
2023/07/23 00:15:33;;;;;;;7.20;3.80;;;20.10;61.50;;;;;;5062238;28;20192;-79
2023/07/23 00:17:58;;;;;;;5.70;3.40;;;20.20;61.50;;;;;;5068849;28;20191;-79
2023/07/23 00:20:24;;;;;;;5.97;3.50;;;20.20;61.20;;;;;;5059373;28;20200;-76
2023/07/23 00:22:50;;;;;;;6.53;3.60;;;20.30;60.30;;;;;;5057783;28;20185;-79
2023/07/23 00:25:15;;;;;;;5.60;3.40;;;20.50;59.90;;;;;;5057453;28;20283;-77
2023/07/23 00:27:41;;;;;;;4.90;3.70;;;20.50;59.90;;;;;;5056246;28;20218;-78
2023/07/23 00:30:07;;;;;;;6.40;3.80;;;20.50;59.70;;;;;;5063483;28;20315;-78
2023/07/23 00:32:33;;;;;;;8.73;3.60;;;20.50;60.00;;;;;;5064201;28;20462;-78
2023/07/23 00:34:58;;;;;;;5.00;3.20;;;20.50;60.00;;;;;;5058417;28;20434;-77
2023/07/23 00:37:27;;;;;;;7.03;3.73;;;20.40;60.40;;;;;;5069681;28;20194;-77
2023/07/23 00:39:52;;;;;;;6.13;3.53;;;20.30;60.60;;;;;;5061107;28;20220;-80
2023/07/23 00:42:18;;;;;;;6.47;3.23;;;20.30;60.90;;;;;;5057013;28;21197;-76
2023/07/23 00:44:43;;;;;;;4.70;3.10;;;20.10;61.30;;;;;;5063513;28;20188;-75
2023/07/23 00:47:09;;;;;;;8.37;3.20;;;20.00;61.50;;;;;;5064077;28;20195;-78
2023/07/23 00:49:35;;;;;;;8.90;3.37;;;20.00;61.90;;;;;;5064111;28;20239;-76
2023/07/23 00:52:00;;;;;;;4.40;3.10;;;19.90;62.00;;;;;;5056192;28;20233;-74
2023/07/23 00:54:26;;;;;;;5.97;3.00;;;19.80;62.20;;;;;;5057485;28;20227;-75
2023/07/23 00:56:52;;;;;;;4.53;3.10;;;19.80;62.30;;;;;;5067012;28;20311;-75
2023/07/23 00:59:18;;;;;;;6.33;3.60;;;19.70;62.50;;;;;;5056398;28;20449;-75
2023/07/23 01:01:44;;;;;;;5.17;3.40;;;19.60;62.60;;;;;;5062179;28;20825;-76
2023/07/23 01:04:11;;;;;;;7.63;3.20;;;19.60;62.90;;;;;;5061211;28;20188;-75
2023/07/23 01:06:39;;;;;;;6.00;3.30;;;19.50;63.10;;;;;;5065215;28;20192;-76
2023/07/23 01:09:06;;;;;;;5.60;3.30;;;19.40;63.50;;;;;;5060998;28;20468;-74
2023/07/23 01:11:33;;;;;;;4.77;2.90;;;19.30;63.70;;;;;;5060402;28;20579;-76
2023/07/23 01:14:01;;;;;;;5.77;3.57;;;19.20;64.20;;;;;;5059271;28;20460;-75
2023/07/23 01:16:27;;;;;;;6.30;3.47;;;19.20;64.40;;;;;;5061317;28;20444;-76
2023/07/23 01:18:54;;;;;;;5.67;3.03;;;19.10;64.50;;;;;;5066739;28;20743;-74
2023/07/23 01:21:19;;;;;;;5.10;3.40;;;19.00;64.80;;;;;;5056716;28;20467;-76
2023/07/23 01:23:45;;;;;;;6.23;3.73;;;19.00;64.80;;;;;;5062112;28;20434;-76
2023/07/23 01:26:11;;;;;;;6.33;3.70;;;19.00;64.50;;;;;;5069358;28;20209;-75
2023/07/23 01:28:36;;;;;;;5.03;3.40;;;19.00;64.50;;;;;;5054876;28;20199;-75
2023/07/23 01:31:03;;;;;;;6.00;3.60;;;19.00;64.50;;;;;;5064153;28;20238;-74
2023/07/23 01:33:28;;;;;;;5.67;3.37;;;19.00;64.50;;;;;;5062052;28;20199;-75
2023/07/23 01:35:59;;;;;;;5.97;3.43;;;19.00;64.70;;;;;;5065596;28;20445;-75
2023/07/23 01:38:25;;;;;;;8.30;3.60;;;19.00;64.50;;;;;;5059296;28;20566;-78
2023/07/23 01:40:52;;;;;;;5.50;3.33;;;19.00;64.70;;;;;;5067092;28;20458;-76
2023/07/23 01:43:18;;;;;;;7.93;3.70;;;19.00;64.80;;;;;;5058172;28;20567;-77
2023/07/23 01:45:45;;;;;;;5.20;3.00;;;18.90;65.00;;;;;;5067668;28;20459;-75
2023/07/23 01:48:12;;;;;;;6.27;3.53;;;18.90;65.10;;;;;;5063485;28;20475;-79
2023/07/23 01:50:38;;;;;;;8.30;3.37;;;18.80;65.10;;;;;;5065993;28;20552;-77
2023/07/23 01:53:04;;;;;;;4.90;3.00;;;18.80;65.40;;;;;;5068882;28;20428;-79
2023/07/23 01:55:30;;;;;;;4.90;3.00;;;18.70;65.40;;;;;;5064498;28;20516;-78
2023/07/23 01:57:55;;;;;;;5.07;3.17;;;18.80;65.40;;;;;;5060514;28;20469;-78
2023/07/23 02:00:21;;;;;;;4.30;3.10;;;18.70;65.30;;;;;;5060203;28;20211;-78
2023/07/23 02:02:47;;;;;;;6.23;2.80;;;18.70;65.40;;;;;;5068239;28;20201;-77
2023/07/23 02:05:13;;;;;;;4.00;2.90;;;18.70;65.60;;;;;;5063789;28;20646;-78
2023/07/23 02:07:39;;;;;;;5.53;3.23;;;18.60;65.60;;;;;;5061027;28;20237;-77
2023/07/23 02:10:06;;;;;;;9.03;4.13;;;18.60;65.60;;;;;;5066229;28;20494;-78
2023/07/23 02:12:33;;;;;;;6.40;3.47;;;18.60;65.60;;;;;;5060718;28;20929;-78
2023/07/23 02:14:59;;;;;;;5.20;3.10;;;18.50;65.70;;;;;;5066763;28;20491;-78
2023/07/23 02:17:25;;;;;;;4.03;2.80;;;18.50;65.80;;;;;;5056827;28;20440;-78
2023/07/23 02:19:51;;;;;;;5.03;3.00;;;18.40;66.00;;;;;;5070185;28;20482;-79
2023/07/23 02:22:17;;;;;;;7.10;3.40;;;18.30;66.30;;;;;;5071870;28;20468;-78
2023/07/23 02:24:42;;;;;;;7.33;3.30;;;18.30;66.40;;;;;;5056045;28;20225;-76
2023/07/23 02:27:08;;;;;;;6.97;2.63;;;18.30;66.60;;;;;;5065372;28;20213;-77
2023/07/23 02:29:34;;;;;;;9.57;3.27;;;18.30;66.60;;;;;;5060848;28;20258;-77
2023/07/23 02:31:59;;;;;;;5.33;3.47;;;18.20;66.70;;;;;;5064510;28;20254;-76
2023/07/23 02:34:25;;;;;;;7.90;2.87;;;18.20;66.70;;;;;;5066333;28;20180;-77
2023/07/23 02:36:50;;;;;;;8.03;3.80;;;18.10;66.90;;;;;;5070472;28;20194;-78
2023/07/23 02:39:16;;;;;;;4.83;3.13;;;18.10;66.90;;;;;;5061838;28;20189;-76
2023/07/23 02:41:42;;;;;;;6.90;3.13;;;18.10;66.90;;;;;;5065546;28;20696;-77
2023/07/23 02:44:07;;;;;;;6.90;3.27;;;18.00;67.20;;;;;;5058096;28;20185;-76
2023/07/23 02:46:33;;;;;;;8.03;3.37;;;18.00;67.30;;;;;;5065549;28;20200;-75
2023/07/23 02:48:58;;;;;;;6.70;3.80;;;18.00;67.30;;;;;;5057948;28;20673;-77
2023/07/23 02:51:24;;;;;;;4.67;3.03;;;18.00;67.30;;;;;;5064094;28;20265;-76
2023/07/23 02:53:49;;;;;;;4.27;3.20;;;18.00;67.30;;;;;;5061756;28;20679;-76
2023/07/23 02:56:15;;;;;;;6.37;3.63;;;18.00;67.20;;;;;;5064786;28;20263;-77
2023/07/23 02:58:41;;;;;;;12.50;3.37;;;18.10;67.20;;;;;;5059368;28;20676;-76
2023/07/23 03:01:09;;;;;;;4.33;2.80;;;18.10;67.00;;;;;;5071191;28;20849;-75
2023/07/23 03:03:35;;;;;;;4.73;2.90;;;18.10;67.20;;;;;;5074218;28;20653;-74
2023/07/23 03:06:01;;;;;;;5.60;3.03;;;18.00;67.20;;;;;;5053043;28;20469;-74
2023/07/23 03:08:27;;;;;;;6.90;3.53;;;18.00;67.30;;;;;;5058752;28;20832;-76
2023/07/23 03:10:52;;;;;;;5.90;3.57;;;18.00;67.30;;;;;;5058119;28;20266;-77
2023/07/23 03:13:19;;;;;;;6.90;3.50;;;18.00;67.30;;;;;;5056535;28;20205;-75
2023/07/23 03:15:45;;;;;;;6.13;3.40;;;18.00;67.30;;;;;;5065153;28;20473;-76
2023/07/23 03:18:11;;;;;;;5.10;3.53;;;18.00;67.20;;;;;;5064691;28;20635;-76
2023/07/23 03:20:36;;;;;;;4.60;2.83;;;17.90;67.30;;;;;;5063362;28;20299;-77
2023/07/23 03:23:02;;;;;;;5.57;3.70;;;17.90;67.30;;;;;;5064220;28;20193;-76
2023/07/23 03:25:27;;;;;;;4.97;3.23;;;17.90;67.30;;;;;;5065693;28;20203;-81
2023/07/23 03:27:56;;;;;;;5.10;3.30;;;18.00;67.20;;;;;;5064984;28;20228;-76
2023/07/23 03:30:22;;;;;;;6.90;3.27;;;18.00;67.20;;;;;;5059965;28;20631;-75
2023/07/23 03:32:48;;;;;;;6.87;3.37;;;18.00;66.90;;;;;;5062556;28;20413;-74
2023/07/23 03:35:13;;;;;;;6.60;3.93;;;18.00;67.00;;;;;;5057201;28;20192;-76
2023/07/23 03:37:39;;;;;;;6.77;3.80;;;18.00;67.00;;;;;;5051042;28;21364;-75
2023/07/23 03:40:05;;;;;;;5.90;3.40;;;18.00;67.00;;;;;;5057726;28;20581;-74
2023/07/23 03:42:31;;;;;;;4.37;3.20;;;18.00;67.20;;;;;;5059042;28;20209;-78
2023/07/23 03:44:56;;;;;;;5.47;2.80;;;17.90;67.20;;;;;;5064616;28;20512;-75
2023/07/23 03:47:22;;;;;;;5.43;3.50;;;17.90;67.20;;;;;;5064144;28;20188;-73
2023/07/23 03:49:48;;;;;;;5.27;3.10;;;17.90;67.30;;;;;;5063783;28;20227;-73
2023/07/23 03:52:14;;;;;;;4.80;3.40;;;18.00;67.30;;;;;;5063529;28;20202;-73
2023/07/23 03:54:40;;;;;;;5.90;2.90;;;17.90;67.30;;;;;;5060946;28;21102;-74
2023/07/23 03:57:06;;;;;;;4.80;3.57;;;17.90;67.30;;;;;;5069680;28;20257;-75
2023/07/23 03:59:37;;;;;;;4.97;3.40;;;17.90;67.50;;;;;;5068374;28;20249;-76
2023/07/23 04:02:03;;;;;;;5.37;3.33;;;17.90;67.30;;;;;;5064360;28;20443;-74
2023/07/23 04:04:28;;;;;;;5.33;3.10;;;17.90;67.30;;;;;;5069443;28;20446;-73
2023/07/23 04:06:54;;;;;;;3.97;2.93;;;17.90;67.50;;;;;;5062336;28;20432;-75
2023/07/23 04:09:21;;;;;;;5.33;2.93;;;17.90;67.50;;;;;;5063088;28;20314;-76
2023/07/23 04:11:47;;;;;;;6.60;3.37;;;17.90;67.50;;;;;;5066081;28;20225;-76
2023/07/23 04:14:13;;;;;;;4.60;2.80;;;18.00;67.30;;;;;;5066754;28;20734;-76
2023/07/23 04:16:38;;;;;;;5.20;3.07;;;18.00;67.20;;;;;;5073196;28;20199;-75
2023/07/23 04:19:04;;;;;;;5.93;3.50;;;18.00;67.00;;;;;;5070672;28;20484;-76
2023/07/23 04:21:30;;;;;;;4.40;3.20;;;18.10;66.90;;;;;;5063518;28;20257;-76
2023/07/23 04:23:57;;;;;;;5.80;3.50;;;18.10;66.70;;;;;;5058278;28;20928;-77
2023/07/23 04:26:25;;;;;;;5.13;3.10;;;18.20;66.60;;;;;;5059629;28;20202;-77
2023/07/23 04:28:51;;;;;;;6.03;3.23;;;18.20;66.70;;;;;;5055978;28;20440;-75
2023/07/23 04:31:17;;;;;;;6.17;3.30;;;18.20;66.70;;;;;;5063985;28;20494;-76
2023/07/23 04:33:43;;;;;;;6.73;4.13;;;18.20;66.70;;;;;;5057054;28;20433;-76
2023/07/23 04:36:10;;;;;;;6.50;3.20;;;18.20;66.70;;;;;;5069343;28;20938;-76
2023/07/23 04:38:36;;;;;;;5.63;3.00;;;18.20;66.70;;;;;;5066413;28;20428;-74
2023/07/23 04:41:01;;;;;;;7.23;3.20;;;18.10;66.90;;;;;;5053969;28;20455;-75
2023/07/23 04:43:27;;;;;;;5.30;2.87;;;18.10;66.90;;;;;;5054281;28;20194;-74
2023/07/23 04:45:53;;;;;;;7.10;3.00;;;18.10;67.00;;;;;;5067613;28;20310;-75
2023/07/23 04:48:19;;;;;;;5.37;3.43;;;18.10;66.90;;;;;;5058928;28;20216;-75
2023/07/23 04:50:44;;;;;;;4.27;2.87;;;18.10;67.00;;;;;;5058415;28;20492;-75
2023/07/23 04:53:10;;;;;;;6.60;3.40;;;18.20;66.90;;;;;;5061964;28;20208;-76
2023/07/23 04:55:36;;;;;;;4.30;2.90;;;18.20;67.00;;;;;;5063708;28;20726;-75
2023/07/23 04:58:02;;;;;;;4.50;3.30;;;18.30;66.90;;;;;;5062986;28;20728;-76
2023/07/23 05:00:28;;;;;;;7.07;3.30;;;18.30;67.00;;;;;;5059479;28;20479;-75
2023/07/23 05:02:54;;;;;;;4.70;2.50;;;18.30;67.00;;;;;;5056439;28;20445;-75
2023/07/23 05:05:20;;;;;;;5.03;3.20;;;18.30;67.20;;;;;;5063132;28;20516;-75
2023/07/23 05:07:45;;;;;;;7.13;3.03;;;18.30;67.20;;;;;;5065937;28;20188;-76
2023/07/23 05:10:11;;;;;;;5.50;3.00;;;18.30;67.20;;;;;;5056884;28;20256;-76
2023/07/23 05:12:39;;;;;;;5.43;3.27;;;18.30;67.20;;;;;;5056861;28;20198;-74
2023/07/23 05:15:12;;;;;;;4.67;3.07;;;18.40;67.00;;;;;;5063108;28;20250;-74
2023/07/23 05:17:39;;;;;;;4.77;3.10;;;18.40;67.00;;;;;;5056736;28;20950;-74
2023/07/23 05:20:06;;;;;;;6.73;3.40;;;18.50;67.00;;;;;;5063663;28;20462;-75
2023/07/23 05:22:37;;;;;;;6.53;3.23;;;18.50;66.90;;;;;;5060771;28;20428;-75
2023/07/23 05:25:03;;;;;;;5.70;3.00;;;18.50;66.90;;;;;;5069053;28;20596;-77
2023/07/23 05:27:29;;;;;;;6.73;3.20;;;18.50;66.90;;;;;;5067909;28;20430;-75
2023/07/23 05:29:55;;;;;;;8.40;3.20;;;18.60;66.90;;;;;;5059409;28;20517;-75
2023/07/23 05:32:21;;;;;;;6.47;3.63;;;18.60;66.70;;;;;;5071872;28;20914;-74
2023/07/23 05:34:46;;;;;;;5.83;3.37;;;18.70;66.90;;;;;;5064319;28;20962;-74
2023/07/23 05:37:12;;;;;;;6.10;3.20;;;18.70;66.70;;;;;;5072849;28;20257;-74
2023/07/23 05:39:37;;;;;;;6.47;3.30;;;18.80;66.60;;;;;;5060448;28;20286;-74
2023/07/23 05:42:03;;;;;;;6.20;2.73;;;18.90;66.40;;;;;;5063424;28;20193;-75
2023/07/23 05:44:29;;;;;;;5.40;3.23;;;19.00;66.30;;;;;;5060935;28;20271;-77
2023/07/23 05:46:55;;;;;;;5.53;2.93;;;19.10;66.10;;;;;;5060567;28;20434;-76
2023/07/23 05:49:20;;;;;;;4.10;2.70;;;19.20;66.00;;;;;;5065482;28;20205;-76
2023/07/23 05:51:47;;;;;;;6.73;3.03;;;19.30;65.70;;;;;;5063631;28;20226;-75
2023/07/23 05:54:13;;;;;;;5.40;3.00;;;19.50;65.60;;;;;;5065407;28;20184;-76
2023/07/23 05:56:38;;;;;;;6.00;3.63;;;19.60;65.10;;;;;;5068320;28;20447;-76
2023/07/23 05:59:04;;;;;;;6.30;3.60;;;19.70;65.00;;;;;;5073204;28;20210;-76
2023/07/23 06:01:30;;;;;;;6.60;3.17;;;19.90;64.50;;;;;;5071980;28;20216;-76
2023/07/23 06:03:55;;;;;;;4.10;2.83;;;20.10;63.90;;;;;;5069391;28;20779;-77
2023/07/23 06:06:23;;;;;;;4.80;2.90;;;20.30;63.50;;;;;;5065545;28;20200;-74
2023/07/23 06:08:48;;;;;;;4.17;2.50;;;20.50;62.80;;;;;;5069777;28;20195;-76
2023/07/23 06:11:14;;;;;;;5.83;3.07;;;20.80;62.20;;;;;;5066749;28;20479;-76
2023/07/23 06:13:40;;;;;;;3.90;2.90;;;21.00;61.90;;;;;;5059398;28;20194;-76
2023/07/23 06:16:05;;;;;;;3.60;2.53;;;21.20;60.90;;;;;;5060715;28;20452;-76
2023/07/23 06:18:35;;;;;;;6.00;3.50;;;21.50;60.30;;;;;;5057870;28;20228;-75
2023/07/23 06:21:01;;;;;;;5.90;2.70;;;21.80;59.90;;;;;;5053149;28;20225;-76
2023/07/23 06:23:26;;;;;;;3.90;2.93;;;22.00;59.10;;;;;;5064721;28;20425;-74
2023/07/23 06:25:55;;;;;;;5.23;2.97;;;22.10;58.80;;;;;;5065578;28;20459;-76
2023/07/23 06:28:22;;;;;;;3.70;2.70;;;22.20;59.10;;;;;;5066858;28;20192;-75
2023/07/23 06:30:51;;;;;;;5.30;2.87;;;22.40;57.40;;;;;;5055866;28;20526;-75
2023/07/23 06:33:17;;;;;;;4.97;3.50;;;22.50;56.60;;;;;;5060138;28;20563;-76
2023/07/23 06:35:43;;;;;;;3.70;2.50;;;22.40;56.60;;;;;;5064220;28;20762;-76
2023/07/23 06:38:08;;;;;;;9.63;3.27;;;22.50;57.00;;;;;;5069528;28;20190;-74
2023/07/23 06:40:34;;;;;;;7.30;3.00;;;22.60;56.60;;;;;;5060694;28;20474;-75
2023/07/23 06:43:00;;;;;;;5.03;3.10;;;22.60;56.60;;;;;;5063705;28;20198;-76
2023/07/23 06:45:26;;;;;;;5.13;3.00;;;22.70;56.60;;;;;;5058465;28;20284;-75
2023/07/23 06:47:52;;;;;;;4.70;2.93;;;22.70;56.50;;;;;;5058777;28;20770;-75
2023/07/23 06:50:18;;;;;;;6.27;3.20;;;22.70;55.60;;;;;;5060733;28;20233;-74
2023/07/23 06:52:47;;;;;;;5.10;3.10;;;22.70;56.00;;;;;;5064156;28;20194;-75
2023/07/23 06:55:13;;;;;;;5.63;3.10;;;22.60;56.00;;;;;;5043915;28;20439;-75
2023/07/23 06:57:39;;;;;;;6.20;3.80;;;22.70;55.70;;;;;;5061576;28;20434;-74
2023/07/23 07:00:07;;;;;;;4.87;3.00;;;22.70;55.60;;;;;;5060290;28;21857;-73
2023/07/23 07:02:32;;;;;;;6.27;2.70;;;22.70;55.30;;;;;;5063714;28;20980;-73
2023/07/23 07:04:58;;;;;;;5.13;2.90;;;22.90;55.20;;;;;;5060830;28;20573;-74
2023/07/23 07:07:24;;;;;;;5.40;3.13;;;23.00;54.60;;;;;;5061746;28;20195;-73
2023/07/23 07:09:49;;;;;;;7.10;2.80;;;22.90;54.60;;;;;;5056930;28;20307;-76
2023/07/23 07:12:15;;;;;;;3.43;2.60;;;22.80;54.60;;;;;;5061630;28;20203;-75
2023/07/23 07:14:40;;;;;;;6.13;3.10;;;22.80;55.20;;;;;;5063423;28;20242;-75
2023/07/23 07:17:06;;;;;;;6.77;3.17;;;22.80;55.00;;;;;;5062983;28;20193;-75
2023/07/23 07:19:32;;;;;;;4.27;2.90;;;22.90;55.00;;;;;;5057459;28;20572;-74
2023/07/23 07:21:57;;;;;;;3.90;2.60;;;22.90;54.60;;;;;;5057373;28;20355;-76
2023/07/23 07:24:23;;;;;;;4.57;2.97;;;23.00;54.40;;;;;;5052707;28;20670;-76
2023/07/23 07:26:48;;;;;;;6.10;2.80;;;23.00;54.50;;;;;;5060183;28;20194;-76
2023/07/23 07:29:14;;;;;;;5.07;3.10;;;23.20;54.10;;;;;;5064337;28;20285;-76
2023/07/23 07:31:40;;;;;;;4.33;3.10;;;23.30;54.20;;;;;;5062585;28;20231;-76
2023/07/23 07:34:05;;;;;;;5.00;2.70;;;23.50;53.40;;;;;;5057747;28;20277;-75
2023/07/23 07:36:31;;;;;;;4.50;3.00;;;23.50;53.30;;;;;;5058741;28;20239;-77
2023/07/23 07:38:57;;;;;;;6.23;3.30;;;23.60;53.40;;;;;;5067524;28;20675;-74
2023/07/23 07:41:22;;;;;;;4.33;2.87;;;23.60;53.40;;;;;;5062351;28;20209;-73
2023/07/23 07:43:48;;;;;;;5.60;3.00;;;23.70;53.60;;;;;;5061144;28;20197;-73
2023/07/23 07:46:14;;;;;;;5.47;2.70;;;23.80;53.20;;;;;;5063849;28;20252;-72
2023/07/23 07:48:40;;;;;;;5.57;2.47;;;24.00;52.80;;;;;;5052692;28;20193;-74
2023/07/23 07:51:06;;;;;;;4.27;2.80;;;24.00;53.00;;;;;;5063503;28;20310;-70
2023/07/23 07:53:33;;;;;;;4.80;2.70;;;24.10;52.90;;;;;;5059648;28;21142;-68
2023/07/23 07:56:00;;;;;;;4.20;3.00;;;24.30;52.50;;;;;;5062337;28;20512;-69
2023/07/23 07:58:27;;;;;;;3.73;2.57;;;24.30;52.60;;;;;;5061535;28;20489;-69
2023/07/23 08:01:01;;;;;;;4.03;2.80;;;24.50;52.10;;;;;;5055693;28;20986;-70
2023/07/23 08:03:39;;;;;;;5.20;3.20;;;24.30;52.40;;;;;;5063907;28;20458;-68
2023/07/23 08:06:05;;;;;;;5.33;3.37;;;24.40;52.20;;;;;;5062801;28;20433;-69
2023/07/23 08:08:33;;;;;;;3.73;2.67;;;24.50;52.20;;;;;;5063810;28;20459;-70
2023/07/23 08:11:01;;;;;;;8.03;3.43;;;24.60;51.70;;;;;;5061461;28;20273;-68
2023/07/23 08:13:30;;;;;;;4.60;2.50;;;24.60;51.70;;;;;;5062770;28;20426;-68
2023/07/23 08:15:56;;;;;;;4.87;3.10;;;24.60;51.80;;;;;;5062516;28;20839;-69
2023/07/23 08:18:22;;;;;;;6.60;3.10;;;24.80;52.10;;;;;;5061030;28;20432;-70
2023/07/23 08:20:48;;;;;;;4.87;3.00;;;24.90;51.40;;;;;;5050654;28;20657;-69
2023/07/23 08:23:15;;;;;;;4.93;3.17;;;24.80;51.80;;;;;;5064213;28;20958;-69
2023/07/23 08:25:43;;;;;;;5.60;3.23;;;24.90;51.80;;;;;;5071678;28;20225;-69
2023/07/23 08:28:12;;;;;;;4.50;2.83;;;24.70;52.10;;;;;;5055529;28;20955;-69
2023/07/23 08:30:37;;;;;;;7.43;3.60;;;24.60;52.60;;;;;;5054785;28;20832;-70
2023/07/23 08:33:07;;;;;;;7.43;2.90;;;24.80;52.50;;;;;;5057245;28;20435;-72
2023/07/23 08:35:32;;;;;;;5.87;3.03;;;25.10;52.00;;;;;;5062786;28;20274;-73
2023/07/23 08:37:59;;;;;;;7.13;3.00;;;24.90;52.00;;;;;;5057822;28;20533;-68
2023/07/23 08:40:26;;;;;;;4.53;2.87;;;24.90;52.40;;;;;;5054412;28;20223;-71
2023/07/23 08:43:12;;;;;;;4.77;2.90;;;25.00;52.20;;;;;;5051593;28;20521;-69
2023/07/23 08:45:59;;;;;;;4.70;2.43;;;25.00;51.60;;;;;;5049029;28;20468;-68
2023/07/23 08:48:41;;;;;;;7.67;3.00;;;24.90;52.40;;;;;;5063020;28;20471;-69
2023/07/23 08:51:08;;;;;;;3.80;2.63;;;24.90;52.20;;;;;;5055248;28;21107;-69
2023/07/23 08:53:34;;;;;;;5.60;3.37;;;25.00;52.20;;;;;;5054848;28;20435;-69
2023/07/23 08:56:00;;;;;;;4.00;2.40;;;25.00;52.40;;;;;;5056144;28;20435;-68
2023/07/23 08:58:25;;;;;;;5.30;2.70;;;25.10;51.70;;;;;;5062319;28;20188;-69
2023/07/23 09:00:51;;;;;;;5.40;2.57;;;25.10;51.80;;;;;;5050792;28;20209;-69
2023/07/23 09:03:21;;;;;;;5.53;2.63;;;25.00;52.20;;;;;;5059167;28;20192;-70
2023/07/23 09:05:47;;;;;;;4.13;2.47;;;24.80;52.50;;;;;;5058435;28;20192;-69
2023/07/23 09:08:12;;;;;;;3.77;2.40;;;24.90;52.60;;;;;;5060579;28;20433;-69
2023/07/23 09:10:38;;;;;;;4.53;2.57;;;25.00;52.40;;;;;;5066978;28;20224;-68
2023/07/23 09:13:16;;;;;;;7.60;5.10;;;24.90;51.80;;;;;;5060198;28;20667;-70
2023/07/23 09:15:52;;;;;;;3.60;2.37;;;24.80;52.60;;;;;;5051248;28;20198;-69
2023/07/23 09:18:19;;;;;;;5.07;2.40;;;25.00;52.20;;;;;;5061174;28;20436;-69
2023/07/23 09:20:48;;;;;;;11.50;8.23;;;25.20;51.40;;;;;;5057607;28;20557;-68
2023/07/23 09:23:14;;;;;;;3.60;2.50;;;25.40;51.20;;;;;;5054727;28;20427;-70
2023/07/23 09:25:43;;;;;;;3.70;2.80;;;25.60;50.60;;;;;;5056791;28;20465;-69
2023/07/23 09:28:22;;;;;;;3.43;1.93;;;25.70;50.20;;;;;;5053459;28;20529;-69
2023/07/23 09:30:48;;;;;;;4.43;2.30;;;25.50;49.80;;;;;;5059820;28;20551;-71
2023/07/23 09:33:14;;;;;;;4.70;2.33;;;25.20;50.50;;;;;;5058547;28;20538;-72
2023/07/23 09:35:41;;;;;;;3.70;2.20;;;25.10;50.50;;;;;;5052738;28;21194;-73
2023/07/23 09:38:12;;;;;;;2.90;1.87;;;25.20;50.30;;;;;;5033660;28;20184;-71
2023/07/23 09:40:41;;;;;;;5.63;2.20;;;25.40;48.50;;;;;;5057029;28;20492;-77
2023/07/23 09:43:07;;;;;;;4.33;2.30;;;25.30;48.10;;;;;;5063528;28;20445;-74
2023/07/23 09:45:38;;;;;;;4.87;2.00;;;25.40;48.20;;;;;;5056836;28;20508;-76
2023/07/23 09:48:04;;;;;;;3.80;2.10;;;25.20;48.50;;;;;;5057695;28;20417;-74
2023/07/23 09:50:36;;;;;;;4.17;2.27;;;25.10;48.60;;;;;;5051690;28;20542;-74
2023/07/23 09:53:02;;;;;;;3.10;2.03;;;25.10;49.00;;;;;;5064592;28;20929;-75
2023/07/23 09:55:29;;;;;;;3.73;2.20;;;25.10;48.90;;;;;;5060053;28;20428;-74
2023/07/23 09:57:58;;;;;;;4.77;1.80;;;25.20;48.90;;;;;;5066071;28;20444;-75
2023/07/23 10:00:24;;;;;;;5.20;2.00;;;25.30;48.70;;;;;;5068814;28;20462;-73
2023/07/23 10:02:50;;;;;;;4.17;2.40;;;25.40;48.20;;;;;;5067784;28;20426;-74
2023/07/23 10:05:18;;;;;;;3.70;2.37;;;25.50;48.20;;;;;;5066051;28;20517;-75
2023/07/23 10:07:47;;;;;;;3.33;2.20;;;25.70;48.10;;;;;;5066584;28;20423;-76
2023/07/23 10:10:16;;;;;;;3.10;1.87;;;25.80;48.20;;;;;;5055544;28;21070;-75
2023/07/23 10:12:42;;;;;;;5.47;2.27;;;25.90;47.40;;;;;;5062487;28;20427;-75
2023/07/23 10:15:08;;;;;;;3.83;2.40;;;26.00;47.10;;;;;;5058666;28;20444;-75
2023/07/23 10:17:58;;;;;;;5.13;2.03;;;26.30;46.60;;;;;;5067989;28;20190;-76
2023/07/23 10:20:29;;;;;;;4.23;2.07;;;26.50;45.10;;;;;;5063998;28;20469;-75
2023/07/23 10:22:55;;;;;;;4.07;2.23;;;26.70;45.00;;;;;;5066676;28;20444;-74
2023/07/23 10:25:30;;;;;;;3.30;2.13;;;26.40;45.30;;;;;;5064856;28;20936;-75
2023/07/23 10:28:01;;;;;;;3.70;2.80;;;26.00;46.50;;;;;;5055179;28;20189;-75
2023/07/23 10:30:28;;;;;;;3.70;2.40;;;25.70;47.50;;;;;;5054666;28;20958;-76
2023/07/23 10:33:09;;;;;;;4.17;2.20;;;25.60;47.50;;;;;;5060197;28;20445;-76
2023/07/23 10:35:54;;;;;;;5.90;2.63;;;25.60;47.50;;;;;;5065893;28;20487;-75
2023/07/23 10:38:21;;;;;;;4.47;2.37;;;25.60;47.70;;;;;;5068036;28;20471;-76
2023/07/23 10:40:47;;;;;;;3.43;2.07;;;25.60;47.50;;;;;;5056855;28;20465;-75
2023/07/23 10:43:14;;;;;;;5.10;2.30;;;25.80;47.50;;;;;;5060802;28;20475;-75
2023/07/23 10:45:59;;;;;;;2.70;1.77;;;25.90;47.70;;;;;;5065013;28;20940;-76
2023/07/23 10:48:49;;;;;;;3.40;2.10;;;26.10;47.40;;;;;;5066524;28;20429;-74
2023/07/23 10:51:20;;;;;;;3.00;2.17;;;26.60;46.30;;;;;;5057572;28;20500;-74
2023/07/23 10:53:58;;;;;;;3.67;2.33;;;26.80;45.80;;;;;;5062471;28;20448;-75
2023/07/23 10:56:27;;;;;;;5.13;3.10;;;26.90;46.20;;;;;;5059495;28;20496;-76
2023/07/23 10:58:58;;;;;;;4.10;2.23;;;26.70;46.30;;;;;;5072414;28;20445;-75
2023/07/23 11:01:25;;;;;;;4.30;2.43;;;26.90;45.50;;;;;;5060654;28;20461;-75
2023/07/23 11:03:57;;;;;;;6.30;2.60;;;27.00;44.50;;;;;;5065989;28;20430;-75
2023/07/23 11:06:33;;;;;;;4.80;2.87;;;26.90;44.50;;;;;;5060369;28;20426;-76
2023/07/23 11:09:12;;;;;;;3.27;2.70;;;26.80;45.40;;;;;;5059165;28;20442;-75
2023/07/23 11:11:39;;;;;;;7.40;2.90;;;26.80;45.40;;;;;;5057906;28;20932;-76
2023/07/23 11:14:27;;;;;;;3.83;2.60;;;26.90;45.50;;;;;;5063731;28;20456;-75
2023/07/23 11:16:55;;;;;;;3.30;2.40;;;26.80;45.50;;;;;;5065301;28;20429;-75
2023/07/23 11:19:23;;;;;;;3.57;2.33;;;26.80;46.20;;;;;;5060078;28;20517;-74
2023/07/23 11:21:50;;;;;;;3.70;2.17;;;27.40;45.00;;;;;;5064828;28;20457;-77
2023/07/23 11:24:18;;;;;;;4.13;2.60;;;27.70;44.50;;;;;;5060987;28;20430;-76
2023/07/23 11:26:43;;;;;;;4.50;2.50;;;28.00;44.20;;;;;;5059181;28;20430;-74
2023/07/23 11:29:09;;;;;;;4.50;2.60;;;28.10;43.00;;;;;;5044073;28;20431;-75
2023/07/23 11:31:35;;;;;;;4.90;2.60;;;28.20;42.00;;;;;;5057376;28;20714;-76
2023/07/23 11:34:01;;;;;;;4.90;2.70;;;28.20;41.90;;;;;;5059279;28;20184;-76
2023/07/23 11:36:28;;;;;;;5.47;3.10;;;28.60;41.00;;;;;;5062218;28;20739;-76
2023/07/23 11:38:56;;;;;;;5.10;2.60;;;28.70;41.40;;;;;;5062362;28;20430;-76
2023/07/23 11:41:36;;;;;;;3.87;2.30;;;28.40;41.40;;;;;;5056819;28;20450;-75
2023/07/23 11:44:06;;;;;;;4.53;2.67;;;28.20;41.60;;;;;;5057233;28;20432;-75
2023/07/23 11:46:33;;;;;;;4.33;2.50;;;28.20;42.30;;;;;;5059375;28;20423;-75
2023/07/23 11:49:00;;;;;;;4.90;2.80;;;28.50;39.60;;;;;;5057782;28;20438;-76
2023/07/23 11:51:28;;;;;;;5.03;2.67;;;28.80;38.40;;;;;;5059391;28;20479;-75
2023/07/23 11:54:00;;;;;;;5.50;3.00;;;28.90;37.50;;;;;;5057446;28;20422;-74
2023/07/23 11:56:26;;;;;;;6.47;2.97;;;28.20;39.20;;;;;;5062787;28;20435;-76
2023/07/23 11:58:51;;;;;;;5.33;3.60;;;28.10;39.90;;;;;;5056784;28;20437;-76
2023/07/23 12:01:17;;;;;;;4.60;2.93;;;28.10;40.20;;;;;;5059222;28;20212;-76
2023/07/23 12:03:44;;;;;;;4.07;3.07;;;28.10;39.80;;;;;;5064379;28;20192;-77
2023/07/23 12:06:14;;;;;;;8.60;2.80;;;28.00;38.80;;;;;;5063637;28;20582;-76
2023/07/23 12:08:45;;;;;;;4.73;2.63;;;28.10;38.80;;;;;;5064598;28;20438;-75
2023/07/23 12:11:12;;;;;;;6.33;2.67;;;28.00;39.50;;;;;;5063244;28;20994;-76
2023/07/23 12:13:43;;;;;;;3.97;2.90;;;28.00;39.90;;;;;;5049926;28;20441;-75
2023/07/23 12:16:47;;;;;;;5.50;3.13;;;28.20;40.40;;;;;;5066359;28;20450;-76
2023/07/23 12:19:15;;;;;;;5.47;3.07;;;28.20;39.80;;;;;;5074129;28;20444;-76
2023/07/23 12:21:46;;;;;;;4.93;2.77;;;27.90;38.20;;;;;;5059762;28;20560;-76
2023/07/23 12:24:15;;;;;;;4.53;3.03;;;27.70;39.50;;;;;;5059675;28;20838;-77
2023/07/23 12:26:41;;;;;;;3.73;2.57;;;27.50;40.30;;;;;;5069134;28;20849;-77
2023/07/23 12:29:07;;;;;;;4.70;2.90;;;27.40;40.40;;;;;;5054069;28;20422;-74
2023/07/23 12:31:41;;;;;;;8.77;3.53;;;27.40;40.80;;;;;;5064051;28;20534;-77
2023/07/23 12:34:07;;;;;;;10.20;3.10;;;27.40;41.50;;;;;;5069175;28;20221;-76
2023/07/23 12:36:33;;;;;;;6.17;3.17;;;27.30;41.10;;;;;;5067209;28;20442;-75
2023/07/23 12:38:59;;;;;;;6.60;3.40;;;27.20;41.60;;;;;;5065743;28;20999;-75
2023/07/23 12:41:25;;;;;;;4.10;3.00;;;27.10;42.20;;;;;;5066551;28;20473;-76
2023/07/23 12:43:50;;;;;;;4.93;3.17;;;27.00;42.40;;;;;;5061297;28;20183;-76
2023/07/23 12:46:16;;;;;;;4.47;2.80;;;27.00;42.70;;;;;;5068418;28;20433;-77